Time;durP1;ratioP1;P1;durP2;ratioP2;P2;SDS_P1;SDS_P2;PMS_P1;PMS_P2;Temp;Humidity;BMP_temperature;BMP_pressure;BME280_temperature;BME280_humidity;BME280_pressure;Samples;Min_cycle;Max_cycle;Signal;HPM_P1;HPM_P2
2021/04/27 00:01:03;;;;;;;2.60;1.75;;;;;;;24.21;35.71;94586.66;5012055;28;20056;-80
2021/04/27 00:03:29;;;;;;;2.92;1.75;;;;;;;24.25;35.35;94630.75;5029510;28;20030;-80
2021/04/27 00:05:54;;;;;;;3.10;1.63;;;;;;;23.99;35.76;94570.72;5045224;28;20040;-79
2021/04/27 00:08:20;;;;;;;2.53;2.03;;;;;;;23.90;35.26;94568.41;5027557;28;20025;-79
2021/04/27 00:10:46;;;;;;;2.78;1.63;;;;;;;23.99;35.27;94575.44;5028681;28;20071;-80
2021/04/27 00:13:11;;;;;;;2.95;1.77;;;;;;;23.75;35.36;94528.53;5011524;28;20045;-80
2021/04/27 00:15:36;;;;;;;2.28;1.60;;;;;;;23.79;35.73;94542.59;5008014;28;20042;-79
2021/04/27 00:18:02;;;;;;;3.28;1.90;;;;;;;24.15;35.46;94609.88;5008530;28;20041;-80
2021/04/27 00:20:27;;;;;;;2.40;1.70;;;;;;;23.90;35.88;94545.84;5009169;28;20468;-79
2021/04/27 00:22:53;;;;;;;2.25;1.52;;;;;;;23.85;35.55;94554.13;4995948;28;20025;-80
2021/04/27 00:25:19;;;;;;;3.08;1.80;;;;;;;24.12;35.57;94600.72;5028070;28;20025;-80
2021/04/27 00:27:50;;;;;;;2.60;1.80;;;;;;;24.11;36.02;94610.19;5027937;28;20059;-79
2021/04/27 00:30:16;;;;;;;3.85;1.67;;;;;;;24.11;35.73;94588.38;5029588;28;20029;-80
2021/04/27 00:32:42;;;;;;;2.30;1.58;;;;;;;23.88;36.10;94565.47;5029803;28;20036;-80
2021/04/27 00:35:07;;;;;;;2.42;1.70;;;;;;;24.11;35.73;94610.19;5028883;28;20049;-80
2021/04/27 00:37:33;;;;;;;2.63;1.60;;;;;;;23.73;35.92;94547.41;5029020;28;20060;-79
2021/04/27 00:39:58;;;;;;;2.80;1.73;;;;;;;23.73;35.87;94558.31;5027346;28;20099;-79
2021/04/27 00:42:31;;;;;;;2.70;1.70;;;;;;;24.09;35.77;94607.22;5027887;28;20029;-80
2021/04/27 00:44:57;;;;;;;2.50;1.58;;;;;;;24.00;36.06;94604.91;5028231;28;20528;-80
2021/04/27 00:47:22;;;;;;;3.10;1.85;;;;;;;23.93;35.85;94589.19;5011076;28;20022;-79
2021/04/27 00:49:48;;;;;;;2.70;1.67;;;;;;;23.70;35.99;94548.47;5011194;28;20030;-79
2021/04/27 00:52:14;;;;;;;2.72;1.52;;;;;;;23.79;36.06;94573.31;5031819;28;20017;-80
2021/04/27 00:54:39;;;;;;;2.35;1.73;;;;;;;23.69;36.00;94546.97;5015578;28;20029;-80
2021/04/27 00:57:05;;;;;;;2.40;1.50;;;;;;;23.99;36.22;94576.19;5015039;28;20398;-79
2021/04/27 00:59:30;;;;;;;2.88;1.70;;;;;;;24.03;35.95;94573.84;5047710;28;20619;-80
2021/04/27 01:01:56;;;;;;;2.25;1.60;;;;;;;23.92;35.85;94576.81;5032313;28;20056;-79
2021/04/27 01:04:21;;;;;;;2.25;1.70;;;;;;;24.01;35.96;94579.13;5033229;28;20033;-79
2021/04/27 01:06:49;;;;;;;2.47;1.60;;;;;;;24.00;36.22;94577.63;5031779;28;20029;-79
2021/04/27 01:09:16;;;;;;;4.40;2.53;;;;;;;23.98;36.23;94593.78;5033133;28;20404;-79
2021/04/27 01:11:45;;;;;;;2.20;1.50;;;;;;;23.87;36.29;94574.19;5031717;28;20091;-79
2021/04/27 01:14:23;;;;;;;2.57;1.40;;;;;;;23.96;36.10;94571.78;5048173;28;20100;-78
2021/04/27 01:16:55;;;;;;;3.20;1.70;;;;;;;23.98;36.19;94585.63;5032099;28;20307;-78
2021/04/27 01:19:26;;;;;;;2.70;1.60;;;;;;;23.69;36.22;94546.97;5048099;28;20029;-81
2021/04/27 01:21:52;;;;;;;2.63;1.55;;;;;;;23.73;36.21;94558.31;5031904;28;20032;-78
2021/04/27 01:24:42;;;;;;;2.72;1.80;;;;;;;23.71;36.06;94556.13;5048925;28;20018;-77
2021/04/27 01:27:07;;;;;;;2.53;1.50;;;;;;;23.95;36.39;94564.84;5047060;28;20116;-79
2021/04/27 01:29:33;;;;;;;2.75;1.50;;;;;;;23.94;36.25;94579.72;5031885;28;20036;-80
2021/04/27 01:32:00;;;;;;;3.97;1.60;;;;;;;23.91;36.22;94564.41;5032353;28;20025;-78
2021/04/27 01:34:26;;;;;;;2.67;1.63;;;;;;;23.92;36.02;94576.81;5030686;28;20049;-78
2021/04/27 01:36:52;;;;;;;1.95;1.75;;;;;;;23.86;36.39;94556.34;5030710;28;20028;-79
2021/04/27 01:39:19;;;;;;;1.95;1.60;;;;;;;23.65;36.00;94546.56;5014061;28;20029;-79
2021/04/27 01:41:46;;;;;;;3.28;1.52;;;;;;;23.90;36.52;94565.69;5030545;28;20087;-79
2021/04/27 01:44:11;;;;;;;3.10;1.65;;;;;;;23.89;36.29;94572.38;5005329;28;20033;-79
2021/04/27 01:46:37;;;;;;;1.92;1.50;;;;;;;23.63;36.52;94549.03;5011850;28;20017;-79
2021/04/27 01:49:03;;;;;;;2.03;1.67;;;;;;;23.63;36.22;94533.44;5030795;28;20064;-79
2021/04/27 01:51:28;;;;;;;4.05;2.00;;;;;;;23.86;36.75;94576.16;5030230;28;20114;-78
2021/04/27 01:53:54;;;;;;;2.83;1.77;;;;;;;23.40;36.51;94509.78;5031234;28;20022;-79
2021/04/27 01:56:20;;;;;;;2.45;1.63;;;;;;;23.86;36.35;94566.53;5030211;28;20701;-79
2021/04/27 01:58:46;;;;;;;2.13;1.60;;;;;;;23.82;36.29;94557.91;5047163;28;20568;-79
2021/04/27 02:01:11;;;;;;;2.45;1.67;;;;;;;23.87;36.42;94566.72;5046588;28;20160;-80
2021/04/27 02:03:44;;;;;;;2.42;1.80;;;;;;;23.85;36.74;94568.50;5031705;28;20599;-80
2021/04/27 02:06:09;;;;;;;2.33;1.50;;;;;;;23.86;36.35;94567.97;5031534;28;20032;-79
2021/04/27 02:08:37;;;;;;;2.20;1.85;;;;;;;23.86;36.51;94571.97;5046987;28;20456;-79
2021/04/27 02:11:02;;;;;;;2.38;1.50;;;;;;;23.62;36.38;94548.31;5046683;28;20128;-79
2021/04/27 02:13:27;;;;;;;3.00;1.60;;;;;;;23.83;36.38;94579.22;5046632;28;20305;-79
2021/04/27 02:15:54;;;;;;;2.08;1.40;;;;;;;23.81;36.43;94570.06;5031019;28;20501;-79
2021/04/27 02:18:28;;;;;;;2.45;1.77;;;;;;;23.59;36.50;94532.28;5013701;28;20030;-77
2021/04/27 02:20:53;;;;;;;2.25;1.65;;;;;;;23.84;36.56;94574.47;5014030;28;20048;-80
2021/04/27 02:23:19;;;;;;;2.20;1.55;;;;;;;23.81;36.42;94570.06;5029699;28;20109;-79
2021/04/27 02:25:45;;;;;;;2.88;1.80;;;;;;;23.79;36.64;94564.41;5013967;28;20615;-79
2021/04/27 02:28:11;;;;;;;2.67;1.80;;;;;;;23.82;36.75;94552.47;5012681;28;20033;-79
2021/04/27 02:30:36;;;;;;;2.70;1.90;;;;;;;23.79;36.61;94556.22;5029466;28;20026;-80
2021/04/27 02:33:02;;;;;;;3.30;1.60;;;;;;;23.51;36.49;94515.06;5013536;28;20068;-79
2021/04/27 02:35:27;;;;;;;2.72;1.73;;;;;;;23.81;36.39;94542.81;5012931;28;20041;-79
2021/04/27 02:37:53;;;;;;;2.78;1.42;;;;;;;23.79;36.59;94528.97;5013052;28;20065;-80
2021/04/27 02:40:26;;;;;;;2.53;1.70;;;;;;;23.81;36.80;94538.09;5031445;28;20108;-80
2021/04/27 02:42:53;;;;;;;3.58;1.60;;;;;;;23.79;36.78;94534.41;5030801;28;20493;-80
2021/04/27 02:45:19;;;;;;;2.70;1.98;;;;;;;23.71;36.54;94519.94;5029419;28;20057;-80
2021/04/27 02:47:45;;;;;;;3.05;1.50;;;;;;;23.74;36.51;94524.34;5030994;28;20028;-79
2021/04/27 02:50:12;;;;;;;1.70;1.40;;;;;;;23.77;36.89;94531.50;5011949;28;20029;-79
2021/04/27 02:52:39;;;;;;;2.22;1.55;;;;;;;23.57;36.59;94512.97;5010617;28;20573;-79
2021/04/27 02:55:05;;;;;;;2.67;1.77;;;;;;;23.78;36.60;94543.84;5011901;28;21070;-80
2021/04/27 02:57:30;;;;;;;2.17;1.40;;;;;;;23.74;36.66;94532.53;5009707;28;20025;-80
2021/04/27 02:59:55;;;;;;;2.65;1.67;;;;;;;23.75;36.56;94528.53;5025808;28;20071;-80
2021/04/27 03:02:21;;;;;;;2.35;1.67;;;;;;;23.74;36.95;94538.00;5029208;28;20022;-77
2021/04/27 03:04:46;;;;;;;2.20;1.70;;;;;;;23.54;36.45;94519.47;5029254;28;20381;-79
2021/04/27 03:07:12;;;;;;;2.72;2.00;;;;;;;23.77;36.57;94539.66;5045938;28;20044;-80
2021/04/27 03:09:37;;;;;;;2.10;1.60;;;;;;;23.71;36.51;94555.38;5046100;28;20582;-80
2021/04/27 03:12:03;;;;;;;2.40;1.67;;;;;;;23.30;36.90;94495.09;5029037;28;20037;-80
2021/04/27 03:14:28;;;;;;;2.15;1.52;;;;;;;23.46;37.20;94518.63;5043889;28;20086;-80
2021/04/27 03:16:54;;;;;;;2.45;1.65;;;;;;;23.46;36.59;94524.06;5028765;28;20029;-79
2021/04/27 03:19:19;;;;;;;2.75;1.70;;;;;;;23.70;36.73;94553.91;5045496;28;20421;-79
2021/04/27 03:21:45;;;;;;;2.63;1.70;;;;;;;23.45;36.65;94533.47;5030005;28;20559;-79
2021/04/27 03:24:10;;;;;;;2.53;1.45;;;;;;;23.51;37.00;94529.44;5028682;28;20038;-79
2021/04/27 03:26:36;;;;;;;2.10;1.85;;;;;;;23.69;36.95;94563.34;5030548;28;20025;-80
2021/04/27 03:29:01;;;;;;;2.40;1.63;;;;;;;23.70;37.08;94553.91;5030176;28;20467;-79
2021/04/27 03:31:27;;;;;;;3.30;1.77;;;;;;;23.70;36.94;94543.00;5030038;28;20712;-79
2021/04/27 03:33:52;;;;;;;2.38;1.50;;;;;;;23.70;36.75;94551.19;5029658;28;20068;-79
2021/04/27 03:36:18;;;;;;;2.40;1.60;;;;;;;23.63;37.00;94549.03;5029861;28;20033;-79
2021/04/27 03:38:43;;;;;;;2.50;1.60;;;;;;;23.69;36.96;94552.44;5044832;28;20025;-79
2021/04/27 03:41:09;;;;;;;2.22;1.67;;;;;;;23.69;36.91;94541.53;5028362;28;20060;-80
2021/04/27 03:43:34;;;;;;;3.42;1.85;;;;;;;23.65;36.98;94547.31;5045240;28;20036;-80
2021/04/27 03:46:00;;;;;;;2.45;1.80;;;;;;;23.46;36.64;94513.16;5028779;28;20044;-80
2021/04/27 03:48:25;;;;;;;2.42;1.65;;;;;;;23.69;36.95;94530.63;5029775;28;20525;-79
2021/04/27 03:50:51;;;;;;;2.00;1.40;;;;;;;23.68;36.77;94542.81;5044473;28;20074;-78
2021/04/27 03:53:16;;;;;;;2.90;1.60;;;;;;;23.67;36.79;94544.06;5029697;28;20029;-81
2021/04/27 03:55:42;;;;;;;2.13;1.52;;;;;;;23.65;37.11;94543.84;5029050;28;20026;-80
2021/04/27 03:58:07;;;;;;;1.85;1.38;;;;;;;23.65;37.08;94547.31;5030654;28;20026;-80
2021/04/27 04:00:33;;;;;;;1.98;1.48;;;;;;;23.67;37.08;94566.59;5028733;28;20121;-80
2021/04/27 04:02:59;;;;;;;1.73;1.40;;;;;;;23.67;36.87;94576.75;5028965;28;20057;-80
2021/04/27 04:05:24;;;;;;;2.13;1.27;;;;;;;23.68;37.13;94570.06;5028564;28;20112;-78
2021/04/27 04:07:50;;;;;;;2.40;1.77;;;;;;;23.68;37.16;94567.34;5029391;28;20058;-79
2021/04/27 04:10:16;;;;;;;2.30;1.55;;;;;;;23.65;37.18;94579.28;5027281;28;20052;-79
2021/04/27 04:12:41;;;;;;;2.10;1.60;;;;;;;23.28;37.03;94535.75;5029158;28;20036;-79
2021/04/27 04:15:14;;;;;;;2.30;1.42;;;;;;;23.68;37.00;94589.16;5013428;28;20493;-79
2021/04/27 04:17:40;;;;;;;2.00;1.73;;;;;;;23.44;37.04;94548.38;5009182;28;20084;-76
2021/04/27 04:20:17;;;;;;;2.05;1.58;;;;;;;23.50;37.10;94541.56;5011389;28;20029;-76
2021/04/27 04:22:42;;;;;;;1.88;1.30;;;;;;;23.69;37.21;94585.16;5026420;28;20021;-77
2021/04/27 04:25:09;;;;;;;2.15;1.58;;;;;;;23.71;37.17;94580.66;5026412;28;20025;-77
2021/04/27 04:27:35;;;;;;;2.00;1.30;;;;;;;23.49;37.77;94550.28;5026155;28;20099;-77
2021/04/27 04:30:01;;;;;;;2.22;1.65;;;;;;;23.35;37.21;94535.16;5000815;28;20547;-76
2021/04/27 04:32:26;;;;;;;2.35;1.45;;;;;;;23.72;37.56;94567.75;5016066;28;20033;-82
2021/04/27 04:34:52;;;;;;;2.20;1.45;;;;;;;23.30;37.43;94488.91;5039722;28;20695;-78
2021/04/27 04:37:18;;;;;;;2.30;1.50;;;;;;;23.52;37.24;94505.63;5018124;28;20048;-78
2021/04/27 04:39:44;;;;;;;2.35;1.60;;;;;;;23.74;37.58;94546.16;5025904;28;20029;-79
2021/04/27 04:42:09;;;;;;;1.90;1.65;;;;;;;23.54;37.32;94530.34;5000571;28;20025;-77
2021/04/27 04:44:35;;;;;;;2.17;1.42;;;;;;;23.73;37.46;94544.69;5024441;28;20029;-78
2021/04/27 04:47:00;;;;;;;2.30;1.50;;;;;;;23.56;37.67;94544.22;5026219;28;20033;-79
2021/04/27 04:49:25;;;;;;;4.68;3.03;;;;;;;23.36;37.64;94519.53;5013635;28;20100;-76
2021/04/27 04:51:52;;;;;;;2.28;1.60;;;;;;;23.60;37.74;94556.28;5025041;28;20507;-76
2021/04/27 04:54:18;;;;;;;3.65;1.70;;;;;;;23.61;37.74;94557.00;5024819;28;20142;-74
2021/04/27 04:56:44;;;;;;;2.65;1.70;;;;;;;23.69;37.82;94557.88;5017176;28;20029;-77
2021/04/27 04:59:09;;;;;;;2.22;1.60;;;;;;;23.72;37.61;94551.38;5023727;28;20021;-76
2021/04/27 05:01:35;;;;;;;3.53;1.80;;;;;;;23.73;37.82;94536.50;5039933;28;20021;-75
2021/04/27 05:04:00;;;;;;;2.67;1.60;;;;;;;23.72;37.90;94524.13;5027173;28;20063;-79
2021/04/27 05:06:27;;;;;;;3.53;1.92;;;;;;;23.79;37.98;94535.16;5023569;28;20017;-76
2021/04/27 05:08:54;;;;;;;4.05;1.80;;;;;;;23.79;37.42;94535.16;5025160;28;20029;-71
2021/04/27 05:11:20;;;;;;;2.40;1.50;;;;;;;23.78;38.01;94560.22;5023996;28;20029;-72
2021/04/27 05:13:45;;;;;;;2.40;1.40;;;;;;;23.72;38.07;94529.56;5041038;28;20064;-73
2021/04/27 05:16:11;;;;;;;2.22;1.55;;;;;;;23.94;37.49;94546.28;5025174;28;20456;-74
2021/04/27 05:18:36;;;;;;;2.85;1.60;;;;;;;23.96;37.79;94539.03;5008574;28;20029;-74
2021/04/27 05:21:02;;;;;;;2.00;1.60;;;;;;;23.97;37.75;94545.94;5024839;28;20035;-75
2021/04/27 05:23:28;;;;;;;4.47;2.63;;;;;;;23.99;37.67;94548.91;5025132;28;20041;-77
2021/04/27 05:25:53;;;;;;;3.70;1.83;;;;;;;24.05;38.04;94530.44;5026994;28;20025;-73
2021/04/27 05:28:19;;;;;;;4.85;1.63;;;;;;;23.93;37.96;94507.38;5025282;28;20029;-73
2021/04/27 05:30:44;;;;;;;2.03;1.63;;;;;;;24.21;38.71;94526.66;5019497;28;20516;-73
2021/04/27 05:33:10;;;;;;;3.13;1.80;;;;;;;24.33;38.37;94527.91;5024203;28;20040;-76
2021/04/27 05:35:35;;;;;;;4.82;1.90;;;;;;;24.38;39.01;94513.44;5023167;28;20497;-77
2021/04/27 05:38:00;;;;;;;2.45;1.65;;;;;;;24.42;40.50;94513.84;5025537;28;20451;-75
2021/04/27 05:40:26;;;;;;;2.58;1.60;;;;;;;24.55;39.05;94500.19;5026704;28;20399;-77
2021/04/27 05:42:52;;;;;;;2.30;1.67;;;;;;;24.70;39.55;94522.19;5027910;28;20017;-78
2021/04/27 05:45:17;;;;;;;3.83;1.73;;;;;;;24.66;39.03;94516.31;5029434;28;20036;-81
2021/04/27 05:47:43;;;;;;;3.00;1.98;;;;;;;24.78;37.88;94512.06;5030510;28;20034;-79
2021/04/27 05:50:08;;;;;;;2.35;1.80;;;;;;;24.93;37.46;94516.44;5029378;28;20464;-79
2021/04/27 05:52:34;;;;;;;3.45;1.63;;;;;;;24.97;37.80;94497.69;5030802;28;20056;-76
2021/04/27 05:54:59;;;;;;;2.58;1.98;;;;;;;25.13;37.23;94521.22;5029074;28;20037;-77
2021/04/27 05:57:25;;;;;;;3.40;2.00;;;;;;;25.22;36.82;94531.69;5009996;28;20036;-78
2021/04/27 05:59:51;;;;;;;3.42;2.30;;;;;;;25.22;37.12;94523.47;5030508;28;20025;-81
2021/04/27 06:02:16;;;;;;;3.08;2.00;;;;;;;25.25;36.80;94516.94;5030639;28;20033;-82
2021/04/27 06:04:41;;;;;;;3.83;1.92;;;;;;;25.38;37.01;94519.59;5028854;28;20500;-75
2021/04/27 06:07:10;;;;;;;3.67;2.10;;;;;;;25.44;36.69;94506.53;5027476;28;20040;-75
2021/04/27 06:09:36;;;;;;;2.05;1.60;;;;;;;25.61;35.87;94509.59;5030100;28;20573;-75
2021/04/27 06:12:02;;;;;;;2.60;1.88;;;;;;;25.55;35.73;94495.34;5028412;28;20791;-77
2021/04/27 06:14:27;;;;;;;3.35;2.25;;;;;;;25.72;36.10;94525.75;5029408;28;20038;-79
2021/04/27 06:16:53;;;;;;;3.22;2.05;;;;;;;25.79;35.88;94527.81;5029668;28;20025;-80
2021/04/27 06:19:18;;;;;;;2.60;2.13;;;;;;;25.86;35.80;94525.13;5028931;28;20029;-80
2021/04/27 06:21:44;;;;;;;3.83;2.00;;;;;;;25.69;35.40;94496.72;5046221;28;20028;-80
2021/04/27 06:24:09;;;;;;;4.38;1.92;;;;;;;26.02;34.97;94530.16;5029394;28;20017;-76
2021/04/27 06:26:35;;;;;;;2.97;1.90;;;;;;;25.98;34.97;94532.50;5027623;28;20028;-76
2021/04/27 06:29:00;;;;;;;6.45;2.17;;;;;;;25.88;35.30;94508.91;5028839;28;20025;-77
2021/04/27 06:31:26;;;;;;;2.85;2.10;;;;;;;26.16;35.16;94542.47;5028613;28;20032;-75
2021/04/27 06:33:51;;;;;;;3.00;2.15;;;;;;;26.18;35.02;94531.69;5029339;28;20084;-75
2021/04/27 06:36:16;;;;;;;4.18;2.20;;;;;;;26.26;34.93;94546.16;4985054;28;20048;-79
2021/04/27 06:38:43;;;;;;;3.47;2.20;;;;;;;26.30;34.20;94549.31;5035090;28;20033;-74
2021/04/27 06:41:08;;;;;;;3.70;2.13;;;;;;;26.32;34.19;94546.75;5028704;28;20040;-77
2021/04/27 06:43:34;;;;;;;4.28;2.22;;;;;;;26.46;34.36;94548.13;5029378;28;20025;-76
2021/04/27 06:45:59;;;;;;;6.35;2.60;;;;;;;26.45;33.92;94544.66;5044592;28;20029;-76
2021/04/27 06:48:25;;;;;;;4.70;2.17;;;;;;;26.50;34.48;94548.50;5029738;28;20029;-81
2021/04/27 06:50:50;;;;;;;6.47;2.20;;;;;;;26.54;34.49;94543.41;5029329;28;20029;-82
2021/04/27 06:53:16;;;;;;;3.42;2.40;;;;;;;26.55;34.26;94539.41;5030797;28;20025;-79
2021/04/27 06:55:41;;;;;;;3.83;2.38;;;;;;;26.61;34.39;94532.50;5029725;28;20178;-82
2021/04/27 06:58:08;;;;;;;4.32;2.10;;;;;;;26.58;34.34;94538.34;5029103;28;20033;-73
2021/04/27 07:00:34;;;;;;;7.97;2.40;;;;;;;26.46;33.76;94537.19;5040803;28;20108;-73
2021/04/27 07:03:00;;;;;;;3.20;2.20;;;;;;;26.56;34.08;94540.84;5038580;28;20037;-71
2021/04/27 07:05:26;;;;;;;3.83;1.80;;;;;;;26.66;34.24;94542.56;5031941;28;20484;-70
2021/04/27 07:07:52;;;;;;;4.60;2.35;;;;;;;26.76;34.03;94533.28;5036817;28;20029;-71
2021/04/27 07:10:17;;;;;;;3.47;2.20;;;;;;;26.85;33.64;94529.28;5036369;28;20090;-72
2021/04/27 07:12:43;;;;;;;3.63;2.20;;;;;;;26.68;33.75;94493.44;5045281;28;20041;-79
2021/04/27 07:15:09;;;;;;;4.30;2.75;;;;;;;26.87;33.79;94521.25;5030100;28;20033;-74
2021/04/27 07:17:34;;;;;;;3.33;2.25;;;;;;;26.97;33.45;94520.22;5024290;28;20025;-73
2021/04/27 07:20:00;;;;;;;3.95;2.35;;;;;;;26.76;33.65;94516.84;5027362;28;20546;-74
2021/04/27 07:22:27;;;;;;;3.83;2.40;;;;;;;26.98;33.67;94532.66;5028254;28;20558;-77
2021/04/27 07:24:53;;;;;;;4.32;2.88;;;;;;;26.99;33.13;94534.09;5010635;28;20547;-76
2021/04/27 07:27:19;;;;;;;3.65;2.42;;;;;;;26.86;32.90;94509.56;5023702;28;20033;-76
2021/04/27 07:29:44;;;;;;;3.53;2.40;;;;;;;27.03;33.15;94539.25;5027108;28;20082;-76
2021/04/27 07:32:13;;;;;;;6.35;3.10;;;;;;;26.69;32.45;94538.00;5043708;28;20040;-75
2021/04/27 07:34:42;;;;;;;3.40;2.13;;;;;;;26.96;33.15;94557.09;5010993;28;20041;-76
2021/04/27 07:37:08;;;;;;;4.75;2.80;;;;;;;26.95;33.02;94539.22;5026702;28;20045;-75
2021/04/27 07:39:33;;;;;;;5.25;2.63;;;;;;;26.99;33.02;94534.09;5026159;28;20048;-75
2021/04/27 07:42:00;;;;;;;5.18;2.63;;;;;;;27.05;32.46;94542.88;5025435;28;20025;-74
2021/04/27 07:44:25;;;;;;;3.63;2.50;;;;;;;27.13;32.63;94538.16;5024950;28;20049;-74
2021/04/27 07:46:51;;;;;;;6.07;2.83;;;;;;;27.07;32.56;94540.34;5026567;28;20071;-75
2021/04/27 07:49:16;;;;;;;4.72;2.55;;;;;;;27.14;32.62;94534.13;5025805;28;20009;-74
2021/04/27 07:51:42;;;;;;;3.95;2.30;;;;;;;27.12;32.69;94525.72;5020698;28;20021;-75
2021/04/27 07:54:08;;;;;;;5.20;2.42;;;;;;;27.17;32.69;94527.56;5027012;28;20024;-75
2021/04/27 07:56:34;;;;;;;3.50;2.20;;;;;;;27.17;32.48;94516.59;5027114;28;20116;-73
2021/04/27 07:59:00;;;;;;;5.45;2.63;;;;;;;27.15;32.33;94499.97;5026300;28;20025;-75
2021/04/27 08:01:26;;;;;;;5.03;2.60;;;;;;;27.04;32.26;94475.66;5024618;28;20086;-74
2021/04/27 08:03:52;;;;;;;4.22;2.38;;;;;;;27.27;32.41;94501.06;5009442;28;20430;-71
2021/04/27 08:06:17;;;;;;;3.80;2.45;;;;;;;27.29;32.22;94517.72;5024453;28;20029;-72
2021/04/27 08:08:43;;;;;;;5.72;2.10;;;;;;;27.26;32.08;94488.63;5024371;28;20037;-71
2021/04/27 08:11:08;;;;;;;3.53;2.20;;;;;;;27.34;32.20;94508.59;5025044;28;20025;-71
2021/04/27 08:13:34;;;;;;;3.33;2.35;;;;;;;27.40;31.67;94528.34;5026532;28;20021;-72
2021/04/27 08:15:59;;;;;;;3.90;2.35;;;;;;;27.44;32.16;94509.50;5026332;28;20037;-71
2021/04/27 08:18:25;;;;;;;3.47;2.42;;;;;;;27.44;32.31;94504.00;5026026;28;20024;-72
2021/04/27 08:20:50;;;;;;;3.90;2.45;;;;;;;27.30;32.18;94502.72;5025878;28;20033;-72
2021/04/27 08:23:16;;;;;;;3.78;2.53;;;;;;;27.43;32.25;94494.34;5025354;28;20026;-73
2021/04/27 08:25:41;;;;;;;3.90;2.40;;;;;;;27.47;31.77;94505.66;5026825;28;20064;-80
2021/04/27 08:28:07;;;;;;;5.28;2.42;;;;;;;27.49;32.28;94508.59;5027669;28;20033;-80
2021/04/27 08:30:33;;;;;;;3.55;2.33;;;;;;;27.51;32.18;94517.75;5027930;28;20092;-80
2021/04/27 08:32:59;;;;;;;3.63;2.30;;;;;;;27.52;32.42;94502.03;5028369;28;20021;-80
2021/04/27 08:35:24;;;;;;;3.55;2.55;;;;;;;27.61;32.10;94498.72;5041470;28;20057;-75
2021/04/27 08:37:50;;;;;;;4.32;2.72;;;;;;;27.52;32.20;94464.38;5025322;28;20463;-76
2021/04/27 08:40:16;;;;;;;4.07;2.42;;;;;;;27.61;32.18;94482.25;5042113;28;20022;-76
2021/04/27 08:42:46;;;;;;;5.65;2.40;;;;;;;27.40;31.93;94452.28;5026274;28;20033;-75
2021/04/27 08:45:11;;;;;;;;;;;;;;;27.65;32.20;94477.16;5025809;28;20113;-75
2021/04/27 08:47:37;;;;;;;3.60;2.58;;;;;;;27.39;32.36;94439.81;5027339;28;19995;-78
2021/04/27 08:50:05;;;;;;;3.42;2.30;;;;;;;27.67;32.16;94480.81;5042338;28;20021;-76
2021/04/27 08:52:30;;;;;;;4.57;2.47;;;;;;;27.60;32.16;94480.81;5024749;28;20083;-78
2021/04/27 08:54:56;;;;;;;5.53;2.47;;;;;;;27.72;32.40;94466.16;5042523;28;20021;-78
2021/04/27 08:57:21;;;;;;;5.03;2.50;;;;;;;27.43;32.70;94461.41;5026207;28;20029;-76
2021/04/27 08:59:46;;;;;;;5.80;2.72;;;;;;;27.33;32.04;94452.28;5022539;28;20098;-75
2021/04/27 09:02:12;;;;;;;10.43;3.97;;;;;;;27.24;31.61;94454.84;5039773;28;20037;-76
2021/04/27 09:04:42;;;;;;;5.38;3.33;;;;;;;27.22;31.87;94462.84;5023158;28;20028;-76
2021/04/27 09:07:10;;;;;;;4.97;3.00;;;;;;;27.18;31.57;94468.72;5023152;28;20535;-77
2021/04/27 09:09:37;;;;;;;7.18;3.53;;;;;;;26.85;31.72;94441.59;5040287;28;20041;-77
2021/04/27 09:12:02;;;;;;;4.78;3.33;;;;;;;27.06;31.39;94478.56;5006241;28;20492;-77
2021/04/27 09:14:28;;;;;;;5.90;3.28;;;;;;;26.75;31.18;94420.75;5029290;28;20037;-79
2021/04/27 09:16:59;;;;;;;4.82;2.80;;;;;;;27.09;31.31;94499.41;5025781;28;20030;-76
2021/04/27 09:19:35;;;;;;;6.22;3.33;;;;;;;26.90;31.53;94449.66;5027997;28;20029;-75
2021/04/27 09:22:05;;;;;;;5.15;3.17;;;;;;;27.15;30.90;94486.25;5026536;28;20549;-77
2021/04/27 09:24:36;;;;;;;6.13;3.20;;;;;;;27.13;30.98;94483.34;5028686;28;20040;-75
2021/04/27 09:27:01;;;;;;;7.00;3.10;;;;;;;27.07;30.84;94485.53;5027976;28;20025;-75
2021/04/27 09:29:31;;;;;;;6.00;3.10;;;;;;;27.10;30.93;94468.00;5026488;28;20040;-75
2021/04/27 09:31:57;;;;;;;6.10;3.00;;;;;;;27.06;30.68;94462.13;5026998;28;20040;-76
2021/04/27 09:34:26;;;;;;;5.70;3.00;;;;;;;27.06;30.70;94455.91;5029234;28;20507;-82
2021/04/27 09:37:00;;;;;;;4.60;2.85;;;;;;;27.31;30.95;94450.06;5030029;28;20112;-82
2021/04/27 09:39:50;;;;;;;5.38;2.88;;;;;;;27.38;31.05;94460.31;5030500;28;20116;-81
2021/04/27 09:42:19;;;;;;;3.50;2.70;;;;;;;27.39;31.31;94461.03;5031367;28;20029;-82
2021/04/27 09:44:50;;;;;;;3.88;2.60;;;;;;;27.35;31.17;94444.22;5029478;28;20610;-81
2021/04/27 09:47:38;;;;;;;5.85;2.95;;;;;;;27.51;30.93;94440.22;5045873;28;20026;-81
2021/04/27 09:50:08;;;;;;;3.60;2.33;;;;;;;27.52;31.17;94415.00;5029530;28;20112;-81
2021/04/27 09:52:42;;;;;;;5.10;2.70;;;;;;;27.51;30.88;94401.81;5031369;28;20037;-83
2021/04/27 09:55:17;;;;;;;4.82;2.47;;;;;;;27.45;30.92;94365.59;5046980;28;20031;-82
2021/04/27 09:57:51;;;;;;;4.03;2.33;;;;;;;27.63;30.95;94392.66;5033903;28;20056;-83
2021/04/27 10:00:29;;;;;;;5.05;2.63;;;;;;;27.68;30.95;94391.00;5031046;28;20041;-84
2021/04/27 10:02:56;;;;;;;6.30;2.80;;;;;;;27.71;31.08;94393.34;5031763;28;20100;-83
2021/04/27 10:05:22;;;;;;;4.05;2.80;;;;;;;27.68;31.11;94393.72;5045917;28;20025;-83
2021/04/27 10:07:47;;;;;;;4.28;2.47;;;;;;;27.45;30.97;94398.50;5013023;28;20412;-84
2021/04/27 10:10:14;;;;;;;4.65;2.65;;;;;;;27.67;31.49;94416.97;5028201;28;20033;-83
2021/04/27 10:12:40;;;;;;;4.03;2.65;;;;;;;27.56;31.24;94420.81;5029982;28;20017;-82
2021/04/27 10:15:07;;;;;;;6.00;2.85;;;;;;;27.64;31.55;94432.53;5030180;28;20048;-83
2021/04/27 10:17:33;;;;;;;4.80;2.58;;;;;;;27.70;31.96;94440.56;5032668;28;20021;-83
2021/04/27 10:19:58;;;;;;;4.82;2.55;;;;;;;27.75;31.79;94437.63;5013025;28;20078;-76
2021/04/27 10:22:26;;;;;;;5.47;2.80;;;;;;;27.49;31.78;94416.06;5028072;28;20055;-81
2021/04/27 10:24:51;;;;;;;8.15;2.88;;;;;;;27.57;31.95;94438.03;5030226;28;20025;-83
2021/04/27 10:27:17;;;;;;;3.42;2.70;;;;;;;27.36;31.96;94374.38;5015408;28;20025;-78
2021/04/27 10:29:42;;;;;;;6.45;2.90;;;;;;;27.47;31.66;94412.41;5010845;28;20531;-79
2021/04/27 10:32:17;;;;;;;5.22;2.85;;;;;;;27.64;31.62;94437.25;5029119;28;20560;-76
2021/04/27 10:34:57;;;;;;;5.50;2.90;;;;;;;27.55;31.53;94443.31;5028639;28;20068;-78
2021/04/27 10:37:27;;;;;;;4.53;2.60;;;;;;;27.61;31.57;94449.34;5028798;28;20091;-76
2021/04/27 10:39:53;;;;;;;4.05;2.70;;;;;;;27.28;31.50;94412.06;5029308;28;20168;-79
2021/04/27 10:42:20;;;;;;;5.57;3.00;;;;;;;27.49;31.71;94432.53;5025049;28;20029;-77
2021/04/27 10:44:52;;;;;;;4.82;2.97;;;;;;;27.42;31.64;94413.31;5027969;28;20122;-78
2021/04/27 10:47:17;;;;;;;5.72;3.33;;;;;;;27.58;31.45;94439.47;5024952;28;20098;-77
2021/04/27 10:49:43;;;;;;;4.15;2.70;;;;;;;27.56;31.63;94431.06;5029114;28;20025;-81
2021/04/27 10:52:25;;;;;;;4.43;2.67;;;;;;;27.59;31.63;94443.69;5030086;28;20064;-81
2021/04/27 10:54:50;;;;;;;6.10;2.55;;;;;;;27.67;31.51;94441.66;5021486;28;20022;-79
2021/04/27 10:57:17;;;;;;;3.92;2.58;;;;;;;27.57;31.43;94449.72;5029107;28;20086;-81
2021/04/27 10:59:53;;;;;;;4.20;2.83;;;;;;;27.64;31.46;94432.53;5028998;28;20030;-78
2021/04/27 11:02:24;;;;;;;5.18;2.78;;;;;;;27.47;31.66;94406.91;5029143;28;20033;-81
2021/04/27 11:04:52;;;;;;;7.95;2.97;;;;;;;27.72;31.49;94433.25;5028430;28;20117;-78
2021/04/27 11:07:23;;;;;;;4.20;2.42;;;;;;;27.81;31.27;94430.66;5027793;28;20032;-87
2021/04/27 11:09:58;;;;;;;5.47;2.58;;;;;;;27.88;31.23;94418.22;5028145;28;20561;-76
2021/04/27 11:12:29;;;;;;;9.07;2.72;;;;;;;27.84;31.27;94402.09;5028753;28;20029;-78
2021/04/27 11:15:22;;;;;;;5.10;2.60;;;;;;;27.71;31.37;94365.19;5028423;28;20037;-79
2021/04/27 11:18:02;;;;;;;5.45;2.85;;;;;;;27.84;31.38;94402.09;5027955;28;20037;-82
2021/04/27 11:20:53;;;;;;;4.70;2.90;;;;;;;28.01;31.36;94394.00;5020928;28;20037;-82
2021/04/27 11:23:44;;;;;;;5.68;2.78;;;;;;;28.03;31.05;94383.19;5025679;28;20037;-81
2021/04/27 11:26:31;;;;;;;4.88;2.60;;;;;;;28.15;31.07;94387.03;5029056;28;20018;-81
2021/04/27 11:29:07;;;;;;;14.85;3.80;;;;;;;28.15;31.40;94380.81;5028372;28;20037;-80
2021/04/27 11:31:57;;;;;;;5.40;2.53;;;;;;;28.19;30.97;94370.16;5039975;28;20075;-77
2021/04/27 11:34:23;;;;;;;3.42;2.42;;;;;;;28.11;31.07;94380.44;5024413;28;20056;-78